ES-0178 weather

Aeródromo de Brunete
Brunete, Madrid, Spain

Public forecast

Using degrees Celsius for public forecast. Weather courtesy of forecast.io.

Closest aviation weather report (METAR) to Aeródromo de Brunete

Closest report is Getafe Air Base, 15.0 nm (27.9 km) ESE. Retrieved 2019/10/23 14:00 UTC (13 minutes ago):

LEGT 231400Z 27008KT 9999 SCT011 BKN021 BKN025 11/08 Q1008

Closest aviation forecast (TAF) to Aeródromo de Brunete

Forecast is more than 12 hours old.

Closest forecast is Getafe Air Base, 15.0 nm (27.9 km) ESE. Retrieved 2018/03/28 12:33 UTC (2 years ago):

TAF LEGT 281100Z 2812/2824 24010KT CAVOK PROB40 TEMPO 2814/2818 27015G25KT TEMPO 2820/2824 28008KT